Time;durP1;ratioP1;P1;durP2;ratioP2;P2;SDS_P1;SDS_P2;PMS_P1;PMS_P2;Temp;Humidity;BMP_temperature;BMP_pressure;BME280_temperature;BME280_humidity;BME280_pressure;Samples;Min_cycle;Max_cycle;Signal;HPM_P1;HPM_P2
2023/02/28 00:02:09;;;;;;;26.20;14.40;;;;;;;0.12;66.21;100007.02;221095;1279;22702;-76
2023/02/28 00:07:11;;;;;;;25.90;13.10;;;;;;;0.10;66.44;100007.19;221185;1279;24266;-76
2023/02/28 00:12:15;;;;;;;31.20;14.90;;;;;;;0.06;66.91;100004.64;221024;1279;22622;-77
2023/02/28 00:17:21;;;;;;;38.70;17.50;;;;;;;0.02;66.77;100006.95;221091;1281;22540;-78
2023/02/28 00:22:30;;;;;;;28.90;13.80;;;;;;;-0.10;67.23;100005.04;221061;1264;22529;-78
2023/02/28 00:27:34;;;;;;;23.00;12.30;;;;;;;-0.20;67.05;100011.90;221233;1281;25517;-76
2023/02/28 00:32:39;;;;;;;22.70;11.70;;;;;;;-0.31;66.96;100013.73;221356;1276;24254;-77
2023/02/28 00:37:42;;;;;;;21.30;11.50;;;;;;;-0.42;67.26;100010.93;221087;1264;22814;-77
2023/02/28 00:42:46;;;;;;;19.70;11.30;;;;;;;-0.54;67.22;100018.20;221178;1276;22696;-77
2023/02/28 00:47:49;;;;;;;21.60;13.00;;;;;;;-0.62;67.18;100020.02;221208;1281;22579;-76
2023/02/28 00:52:54;;;;;;;24.50;13.70;;;;;;;-0.66;67.27;100022.18;221209;1275;22543;-77
2023/02/28 00:57:57;;;;;;;28.50;15.30;;;;;;;-0.74;67.62;100022.77;221059;1281;22628;-76
2023/02/28 01:03:00;;;;;;;28.70;14.80;;;;;;;-0.80;67.55;100026.77;221086;1281;22579;-76
2023/02/28 01:08:03;;;;;;;28.90;15.90;;;;;;;-0.87;68.16;100026.25;221099;1280;22533;-76
2023/02/28 01:13:06;;;;;;;30.70;16.60;;;;;;;-0.92;68.53;100029.34;221139;1280;22560;-77
2023/02/28 01:18:11;;;;;;;30.70;17.90;;;;;;;-0.93;68.44;100025.79;220956;1281;22560;-77
2023/02/28 01:23:13;;;;;;;35.70;18.30;;;;;;;-0.92;68.82;100020.34;221231;1264;25731;-76
2023/02/28 01:28:16;;;;;;;30.80;16.70;;;;;;;-0.89;68.41;100017.04;221194;1281;22680;-77
2023/02/28 01:33:19;;;;;;;28.20;14.90;;;;;;;-0.86;68.84;100008.57;221035;1281;24260;-76
2023/02/28 01:38:22;;;;;;;26.90;15.10;;;;;;;-0.85;68.42;100009.19;221149;1280;24919;-76
2023/02/28 01:43:31;;;;;;;25.20;14.40;;;;;;;-0.81;68.67;100007.63;221308;1279;22543;-77
2023/02/28 01:48:39;;;;;;;30.40;14.80;;;;;;;-0.77;68.49;100001.51;221376;1275;22680;-77
2023/02/28 01:53:49;;;;;;;27.70;15.40;;;;;;;-0.73;68.30;99996.23;221360;1281;22547;-77
2023/02/28 01:58:52;;;;;;;30.30;15.30;;;;;;;-0.69;68.45;99997.77;221120;1281;24982;-76
2023/02/28 02:04:00;;;;;;;25.00;14.00;;;;;;;-0.67;68.21;99997.84;221285;1281;22596;-76
2023/02/28 02:09:03;;;;;;;26.40;13.70;;;;;;;-0.64;68.44;99998.35;221513;1279;24194;-76
2023/02/28 02:14:35;;;;;;;29.30;15.70;;;;;;;-0.62;68.36;99998.95;221114;1271;22578;-77
2023/02/28 02:20:12;;;;;;;26.70;14.10;;;;;;;-0.60;68.35;99995.39;221395;1281;22709;-77
2023/02/28 02:25:33;;;;;;;22.30;11.10;;;;;;;-0.54;68.57;99995.66;221315;1281;25246;-77
2023/02/28 02:31:03;;;;;;;23.40;12.70;;;;;;;-0.54;68.01;99994.45;221212;1279;24383;-76
2023/02/28 02:36:37;;;;;;;22.90;13.50;;;;;;;-0.60;68.57;99990.69;221149;1280;22544;-76
2023/02/28 02:41:50;;;;;;;22.70;12.70;;;;;;;-0.70;68.68;99989.17;221094;1281;22663;-77
2023/02/28 02:47:01;;;;;;;24.30;14.20;;;;;;;-0.81;68.86;99998.45;221144;1281;23015;-77
2023/02/28 02:52:10;;;;;;;26.20;14.70;;;;;;;-0.92;68.87;99990.78;221091;1279;24238;-77
2023/02/28 02:57:35;;;;;;;29.50;12.80;;;;;;;-1.03;69.39;99992.63;221205;1277;22554;-77
2023/02/28 03:02:41;;;;;;;26.90;14.00;;;;;;;-1.17;69.36;99994.91;221267;1281;22777;-77
2023/02/28 03:07:45;;;;;;;26.90;13.30;;;;;;;-1.32;69.43;100002.69;221203;1264;22523;-78
2023/02/28 03:13:00;;;;;;;27.70;14.20;;;;;;;-1.48;70.25;100003.50;221361;1278;24256;-77
2023/02/28 03:18:11;;;;;;;28.50;15.60;;;;;;;-1.58;70.23;100010.28;220975;1280;23477;-76
2023/02/28 03:23:19;;;;;;;31.00;17.80;;;;;;;-1.68;70.44;100005.83;221248;1275;22565;-76
2023/02/28 03:28:45;;;;;;;27.90;16.40;;;;;;;-1.79;70.66;100004.48;221313;1275;23366;-77
2023/02/28 03:33:55;;;;;;;31.00;17.10;;;;;;;-1.90;70.83;100004.73;221396;1278;22672;-76
2023/02/28 03:39:11;;;;;;;27.80;16.50;;;;;;;-2.01;71.48;100010.81;220974;1279;22580;-76
2023/02/28 03:44:24;;;;;;;28.30;16.40;;;;;;;-2.10;71.51;100014.91;221096;1275;22618;-77
2023/02/28 03:49:32;;;;;;;29.30;16.50;;;;;;;-2.20;71.85;100018.67;221204;1278;22696;-77
2023/02/28 03:54:44;;;;;;;29.30;17.00;;;;;;;-2.29;72.18;100014.67;221147;1263;22801;-76
2023/02/28 03:59:54;;;;;;;33.70;17.80;;;;;;;-2.37;72.59;100018.36;221238;1279;22592;-77
2023/02/28 04:04:56;;;;;;;;;;;;;;;-2.42;72.88;100023.24;220751;1281;22547;-78
2023/02/28 04:09:59;;;;;;;37.40;19.50;;;;;;;-2.45;73.06;100026.31;221089;1280;24263;-76
2023/02/28 04:15:01;;;;;;;37.50;18.40;;;;;;;-2.49;73.50;100026.50;220959;1281;22618;-76
2023/02/28 04:20:09;;;;;;;38.90;19.20;;;;;;;-2.51;73.26;100026.79;221112;1281;22596;-76
2023/02/28 04:25:11;;;;;;;42.20;18.50;;;;;;;-2.53;73.37;100032.04;221274;1275;22489;-75
2023/02/28 04:30:14;;;;;;;41.90;17.30;;;;;;;-2.53;73.80;100037.07;221432;1278;22660;-76
2023/02/28 04:35:17;;;;;;;40.40;16.40;;;;;;;-2.53;73.66;100039.15;221056;1281;22601;-76
2023/02/28 04:40:20;;;;;;;47.20;18.40;;;;;;;-2.54;73.89;100045.24;221012;1280;24437;-74
2023/02/28 04:45:22;;;;;;;42.30;17.60;;;;;;;-2.58;73.80;100051.29;220942;1267;23845;-76
2023/02/28 04:50:25;;;;;;;31.20;15.70;;;;;;;-2.63;74.07;100050.15;221336;1275;25132;-76
2023/02/28 04:55:27;;;;;;;35.40;17.40;;;;;;;-2.70;74.19;100052.73;221117;1281;22649;-76
2023/02/28 05:00:29;;;;;;;37.30;19.10;;;;;;;-2.75;74.09;100050.02;221193;1280;24236;-76
2023/02/28 05:05:32;;;;;;;36.20;18.10;;;;;;;-2.79;74.43;100050.55;221203;1272;24258;-75
2023/02/28 05:10:36;;;;;;;34.20;19.30;;;;;;;-2.84;74.54;100052.53;221015;1281;22626;-76
2023/02/28 05:15:37;;;;;;;38.60;20.60;;;;;;;-2.88;74.62;100050.11;221148;1281;22615;-75
2023/02/28 05:20:39;;;;;;;39.30;19.40;;;;;;;-2.88;74.83;100049.29;220984;1280;25648;-76
2023/02/28 05:25:42;;;;;;;27.90;15.50;;;;;;;-2.89;74.76;100054.66;221023;1281;24244;-76
2023/02/28 05:30:44;;;;;;;34.70;18.30;;;;;;;-2.87;74.88;100058.70;221078;1280;22821;-77
2023/02/28 05:35:46;;;;;;;39.20;21.40;;;;;;;-2.88;74.92;100060.83;221100;1281;22656;-75
2023/02/28 05:40:49;;;;;;;39.50;21.60;;;;;;;-2.91;74.81;100069.77;220992;1281;22704;-75
2023/02/28 05:45:51;;;;;;;35.90;17.30;;;;;;;-2.90;75.29;100069.69;221115;1281;25499;-75
2023/02/28 05:50:53;;;;;;;45.20;19.30;;;;;;;-2.84;75.16;100072.03;221104;1279;22643;-75
2023/02/28 05:55:56;;;;;;;44.80;20.20;;;;;;;-2.83;74.96;100080.63;221007;1279;24400;-74
2023/02/28 06:01:00;;;;;;;49.20;19.40;;;;;;;-2.81;75.18;100081.01;221307;1278;22570;-75
2023/02/28 06:06:02;;;;;;;39.60;19.40;;;;;;;-2.75;75.24;100090.73;221389;1279;22593;-74
2023/02/28 06:11:04;;;;;;;45.50;22.40;;;;;;;-2.73;75.16;100090.80;220833;1281;22585;-74
2023/02/28 06:16:07;;;;;;;45.40;21.80;;;;;;;-2.69;75.16;100097.54;221097;1280;22721;-75
2023/02/28 06:21:09;;;;;;;42.60;19.60;;;;;;;-2.67;75.18;100103.09;221115;1275;25645;-74
2023/02/28 06:26:11;;;;;;;54.70;24.20;;;;;;;-2.59;75.56;100105.96;220869;1281;22529;-75
2023/02/28 06:31:16;;;;;;;34.20;16.50;;;;;;;-2.50;75.11;100112.64;221296;1278;25608;-75
2023/02/28 06:36:18;;;;;;;35.60;18.90;;;;;;;-2.41;75.11;100117.21;221327;1270;22707;-73
2023/02/28 06:41:23;;;;;;;37.80;20.80;;;;;;;-2.33;75.16;100122.14;221104;1281;24412;-74
2023/02/28 06:46:26;;;;;;;36.60;21.40;;;;;;;-2.20;75.41;100120.66;221457;1278;25494;-74
2023/02/28 06:51:28;;;;;;;36.50;21.10;;;;;;;-2.04;75.06;100121.42;221577;1275;23312;-75
2023/02/28 06:56:31;;;;;;;46.50;24.10;;;;;;;-1.87;75.07;100122.99;221474;1268;22558;-75
2023/02/28 07:01:33;;;;;;;48.20;25.80;;;;;;;-1.75;74.77;100121.02;221541;1274;22621;-76
2023/02/28 07:06:38;;;;;;;42.30;22.50;;;;;;;-1.56;75.02;100131.79;221847;1263;23213;-74
2023/02/28 07:11:42;;;;;;;41.40;22.60;;;;;;;-1.39;74.82;100137.98;221261;1259;22769;-74
2023/02/28 07:16:45;;;;;;;44.80;24.90;;;;;;;-1.21;74.39;100138.25;221099;1275;25359;-74
2023/02/28 07:21:47;;;;;;;35.10;18.70;;;;;;;-1.05;74.35;100139.85;221302;1274;24234;-72
2023/02/28 07:26:49;;;;;;;33.20;19.70;;;;;;;-0.91;74.56;100148.27;221390;1262;22584;-72
2023/02/28 07:31:52;;;;;;;30.50;18.20;;;;;;;-0.79;74.00;100147.08;221057;1268;22554;-73
2023/02/28 07:36:55;;;;;;;28.40;16.80;;;;;;;-0.67;73.84;100146.79;221318;1268;22624;-71
2023/02/28 07:41:57;;;;;;;34.20;19.10;;;;;;;-0.59;73.37;100142.90;221280;1262;25988;-72
2023/02/28 07:47:00;;;;;;;32.70;16.70;;;;;;;-0.50;73.31;100142.38;221066;1265;26484;-72
2023/02/28 07:52:03;;;;;;;27.10;16.80;;;;;;;-0.40;73.15;100142.30;221069;1266;23788;-74
2023/02/28 07:57:05;;;;;;;30.80;17.20;;;;;;;-0.30;72.53;100145.60;221210;1262;22648;-71
2023/02/28 08:02:13;;;;;;;27.10;16.50;;;;;;;-0.23;72.54;100147.45;221485;1270;22523;-72
2023/02/28 08:07:16;;;;;;;24.10;15.10;;;;;;;-0.19;72.15;100153.63;221720;1263;22695;-72
2023/02/28 08:12:19;;;;;;;23.40;14.00;;;;;;;-0.15;72.20;100150.24;221263;1263;25316;-73
2023/02/28 08:17:20;;;;;;;23.40;13.40;;;;;;;-0.11;71.80;100152.28;221503;1259;22540;-73
2023/02/28 08:22:22;;;;;;;25.00;14.80;;;;;;;-0.07;71.93;100148.77;221365;1263;23251;-73
2023/02/28 08:27:24;;;;;;;25.10;14.10;;;;;;;0.05;71.50;100151.53;221474;1263;25481;-73
2023/02/28 08:32:26;;;;;;;22.80;13.80;;;;;;;0.23;71.23;100148.80;221368;1266;22551;-73
2023/02/28 08:37:31;;;;;;;21.90;13.80;;;;;;;0.41;70.93;100151.52;221448;1275;24371;-73
2023/02/28 08:42:33;;;;;;;23.60;15.80;;;;;;;0.60;70.67;100146.27;221247;1273;23285;-74
2023/02/28 08:47:35;;;;;;;25.40;14.10;;;;;;;0.74;70.27;100150.75;221444;1275;25531;-73
2023/02/28 08:52:38;;;;;;;17.80;11.30;;;;;;;0.89;70.18;100144.31;221319;1263;25304;-73
2023/02/28 08:57:49;;;;;;;18.70;11.20;;;;;;;1.06;69.13;100151.26;221223;1275;24240;-75
2023/02/28 09:03:01;;;;;;;18.40;9.60;;;;;;;1.23;68.90;100150.00;221195;1274;25579;-74
2023/02/28 09:08:04;;;;;;;17.20;10.90;;;;;;;1.45;68.61;100151.41;221276;1268;22567;-74
2023/02/28 09:13:06;;;;;;;17.70;11.50;;;;;;;1.77;68.66;100153.70;221291;1275;25428;-74
2023/02/28 09:18:08;;;;;;;15.90;9.60;;;;;;;2.12;68.00;100149.67;221010;1275;22599;-75
2023/02/28 09:23:12;;;;;;;13.20;8.90;;;;;;;2.39;66.55;100151.00;221298;1281;23093;-74
2023/02/28 09:28:17;;;;;;;17.10;9.30;;;;;;;2.56;66.02;100144.34;221225;1275;22541;-74
2023/02/28 09:33:20;;;;;;;18.00;10.40;;;;;;;2.62;65.96;100146.81;221402;1275;22534;-75
2023/02/28 09:38:23;;;;;;;13.10;8.90;;;;;;;2.66;65.72;100148.13;221410;1281;22520;-74
2023/02/28 09:43:32;;;;;;;14.00;8.80;;;;;;;2.66;65.05;100148.27;221285;1270;25546;-75
2023/02/28 09:48:39;;;;;;;11.40;7.70;;;;;;;2.51;64.35;100148.61;221420;1272;24018;-74
2023/02/28 09:53:42;;;;;;;13.10;8.00;;;;;;;2.41;64.14;100151.54;221396;1262;22575;-74
2023/02/28 09:58:58;;;;;;;12.80;8.20;;;;;;;2.36;64.07;100157.83;221077;1274;22536;-75
2023/02/28 10:04:08;;;;;;;12.50;8.60;;;;;;;2.31;63.68;100158.84;221288;1282;22544;-74
2023/02/28 10:09:24;;;;;;;15.00;9.40;;;;;;;2.34;64.22;100163.14;221162;1278;24399;-74
2023/02/28 10:14:29;;;;;;;13.40;8.80;;;;;;;2.45;64.08;100159.67;221177;1275;26525;-75
2023/02/28 10:19:42;;;;;;;12.00;8.40;;;;;;;2.54;63.48;100159.75;221153;1274;22548;-75
2023/02/28 10:24:47;;;;;;;13.40;9.60;;;;;;;2.68;63.63;100154.80;221245;1259;22544;-74
2023/02/28 10:29:52;;;;;;;15.10;9.40;;;;;;;3.02;63.63;100147.02;221174;1270;22539;-74
2023/02/28 10:35:07;;;;;;;12.30;8.60;;;;;;;3.42;63.53;100144.55;221037;1279;26001;-75
2023/02/28 10:40:35;;;;;;;12.70;9.20;;;;;;;3.73;62.85;100150.00;221361;1268;25140;-74
2023/02/28 10:45:38;;;;;;;15.60;10.80;;;;;;;3.91;61.68;100148.00;221550;1262;22573;-75
2023/02/28 10:50:46;;;;;;;15.50;10.40;;;;;;;4.09;61.84;100137.43;221237;1264;23737;-75
2023/02/28 10:56:06;;;;;;;16.90;10.80;;;;;;;4.43;61.94;100133.99;221462;1262;23810;-76
2023/02/28 11:01:15;;;;;;;14.70;11.30;;;;;;;4.64;60.94;100128.36;221857;1262;23251;-75
2023/02/28 11:06:30;;;;;;;16.20;11.40;;;;;;;4.75;60.89;100122.95;221323;1260;25320;-76
2023/02/28 11:11:43;;;;;;;19.10;10.90;;;;;;;4.89;60.88;100118.03;221393;1265;23069;-73
2023/02/28 11:16:45;;;;;;;15.40;11.10;;;;;;;4.96;60.90;100113.65;221304;1275;159178;-75
2023/02/28 11:21:56;;;;;;;17.30;11.60;;;;;;;4.95;60.21;100104.98;221205;1267;25541;-75
2023/02/28 11:26:58;;;;;;;16.90;11.80;;;;;;;4.77;59.63;100102.56;221207;1263;22645;-76
2023/02/28 11:32:13;;;;;;;23.60;14.30;;;;;;;4.64;59.57;100096.08;221348;1262;26392;-74
2023/02/28 11:37:18;;;;;;;20.30;13.40;;;;;;;4.46;59.23;100087.52;221196;1268;22661;-75
2023/02/28 11:42:44;;;;;;;21.20;13.50;;;;;;;4.34;59.62;100078.86;221182;1271;24422;-75
2023/02/28 11:48:06;;;;;;;21.50;14.40;;;;;;;4.37;60.07;100072.83;221273;1268;22591;-75
2023/02/28 11:53:34;;;;;;;19.80;13.20;;;;;;;4.37;59.98;100071.80;221228;1276;23316;-76
2023/02/28 11:58:55;;;;;;;19.30;13.60;;;;;;;4.26;59.71;100066.34;221165;1263;24115;-75
2023/02/28 12:04:09;;;;;;;22.00;14.90;;;;;;;4.25;59.65;100055.29;221439;1262;22557;-75
2023/02/28 12:09:14;;;;;;;24.80;15.40;;;;;;;4.34;60.03;100053.05;221489;1261;22526;-75
2023/02/28 12:14:55;;;;;;;24.10;15.20;;;;;;;4.30;59.30;100049.86;221458;1274;24271;-76
2023/02/28 12:20:13;;;;;;;21.90;15.00;;;;;;;4.20;59.34;100050.44;220906;1260;25383;-76
2023/02/28 12:25:28;;;;;;;22.60;15.80;;;;;;;4.15;59.18;100050.46;221387;1278;22556;-77
2023/02/28 12:30:53;;;;;;;25.10;15.80;;;;;;;4.11;59.04;100047.48;221327;1278;23138;-76
2023/02/28 12:35:58;;;;;;;22.80;14.70;;;;;;;4.13;59.31;100046.66;221389;1265;22595;-75
2023/02/28 12:41:20;;;;;;;25.20;15.80;;;;;;;4.14;58.96;100043.92;221577;1274;22609;-75
2023/02/28 12:46:50;;;;;;;23.30;15.00;;;;;;;4.11;58.73;100036.31;221682;1262;22645;-76
2023/02/28 12:51:53;;;;;;;22.40;14.50;;;;;;;4.10;58.53;100031.53;221349;1262;24244;-75
2023/02/28 12:57:18;;;;;;;26.10;15.10;;;;;;;4.05;58.67;100027.20;221340;1265;23100;-75
2023/02/28 13:02:58;;;;;;;19.70;13.70;;;;;;;4.08;59.07;100024.31;221353;1266;25428;-75
2023/02/28 13:08:40;;;;;;;20.50;13.60;;;;;;;4.07;58.67;100029.64;221470;1278;22687;-75
2023/02/28 13:13:45;;;;;;;20.30;14.10;;;;;;;4.02;58.71;100025.30;221510;1270;22537;-74
2023/02/28 13:18:48;;;;;;;24.60;14.40;;;;;;;4.09;59.11;100023.70;221372;1277;22562;-74
2023/02/28 13:23:57;;;;;;;22.70;14.30;;;;;;;4.14;58.82;100023.85;221240;1275;24381;-75
2023/02/28 13:29:09;;;;;;;20.10;12.80;;;;;;;4.15;58.81;100022.36;221154;1278;22598;-75
2023/02/28 13:34:16;;;;;;;18.70;12.80;;;;;;;4.18;58.98;100019.88;221318;1278;22690;-76
2023/02/28 13:39:39;;;;;;;17.40;11.90;;;;;;;4.17;58.41;100013.52;221006;1276;25250;-76
2023/02/28 13:45:20;;;;;;;20.70;13.50;;;;;;;4.15;58.32;100012.25;221183;1270;22559;-75
2023/02/28 13:50:38;;;;;;;19.30;13.10;;;;;;;4.15;58.26;100010.71;220592;1283;22565;-76
2023/02/28 13:55:52;;;;;;;18.90;12.80;;;;;;;4.15;58.47;99998.71;221181;1278;24249;-76
2023/02/28 14:01:05;;;;;;;20.80;13.20;;;;;;;4.13;58.40;100002.13;221267;1268;22886;-76
2023/02/28 14:06:09;;;;;;;19.80;13.50;;;;;;;4.11;58.91;99999.02;221284;1278;23635;-77
2023/02/28 14:11:44;;;;;;;19.80;12.40;;;;;;;4.12;58.94;99996.45;221145;1274;23008;-76
2023/02/28 14:16:49;;;;;;;20.40;12.60;;;;;;;4.12;58.44;99992.86;221145;1268;23018;-77
2023/02/28 14:22:21;;;;;;;19.30;12.70;;;;;;;4.13;58.38;99989.10;221226;1265;25261;-76
2023/02/28 14:27:36;;;;;;;18.40;12.50;;;;;;;4.05;58.32;99987.13;221214;1281;23746;-76
2023/02/28 14:33:09;;;;;;;19.20;12.70;;;;;;;4.02;58.69;99983.67;221264;1276;24209;-76
2023/02/28 14:38:24;;;;;;;20.10;14.00;;;;;;;3.97;58.47;99979.38;221446;1274;22540;-76
2023/02/28 14:43:28;;;;;;;21.50;13.30;;;;;;;3.88;58.48;99975.11;221234;1272;23265;-78
2023/02/28 14:48:31;;;;;;;20.80;13.00;;;;;;;3.81;58.59;99969.17;221106;1278;22546;-76
2023/02/28 14:53:37;;;;;;;18.80;13.10;;;;;;;3.72;58.43;99966.75;221305;1276;22643;-76
2023/02/28 14:58:39;;;;;;;20.60;13.20;;;;;;;3.64;58.55;99971.58;221633;1275;24216;-78
2023/02/28 15:03:44;;;;;;;20.00;13.00;;;;;;;3.59;58.72;99972.48;221448;1276;25278;-77
2023/02/28 15:08:46;;;;;;;19.60;11.90;;;;;;;3.53;58.83;99973.90;221456;1278;24264;-79
2023/02/28 15:13:51;;;;;;;24.70;14.70;;;;;;;3.46;58.85;99967.63;221259;1278;25294;-79
2023/02/28 15:18:59;;;;;;;23.90;14.00;;;;;;;3.38;58.84;99969.29;221356;1281;22620;-78
2023/02/28 15:24:33;;;;;;;19.00;13.30;;;;;;;3.30;59.06;99966.41;221349;1262;22595;-80
2023/02/28 15:30:09;;;;;;;24.30;12.90;;;;;;;3.18;59.44;99963.62;221355;1259;22539;-78
2023/02/28 15:35:40;;;;;;;19.80;13.30;;;;;;;3.06;59.78;99965.55;221310;1281;22876;-78
2023/02/28 15:40:55;;;;;;;20.60;13.00;;;;;;;2.96;60.36;99970.46;221337;1281;25381;-77
2023/02/28 15:46:06;;;;;;;22.80;13.50;;;;;;;2.88;60.41;99967.59;221227;1278;22579;-77
2023/02/28 15:51:22;;;;;;;20.70;13.90;;;;;;;2.77;60.68;99967.67;221322;1278;22543;-79
2023/02/28 15:56:29;;;;;;;19.00;12.10;;;;;;;2.64;60.87;99967.05;221466;1278;25351;-78
2023/02/28 16:01:39;;;;;;;19.90;13.00;;;;;;;2.49;61.17;99973.13;221191;1282;22561;-78
2023/02/28 16:06:44;;;;;;;23.10;14.00;;;;;;;2.36;61.77;99975.25;221487;1281;25290;-78
2023/02/28 16:11:54;;;;;;;20.50;13.30;;;;;;;2.23;62.01;99974.59;221225;1281;22665;-78
2023/02/28 16:17:05;;;;;;;26.20;15.70;;;;;;;2.07;62.38;99976.93;221395;1278;26015;-78
2023/02/28 16:22:09;;;;;;;27.20;15.90;;;;;;;1.88;62.62;99977.20;221257;1281;24343;-77
2023/02/28 16:27:22;;;;;;;25.80;17.30;;;;;;;1.71;63.07;99973.98;221429;1279;25304;-79
2023/02/28 16:32:24;;;;;;;30.20;18.00;;;;;;;1.57;63.55;99975.83;221300;1281;22546;-78
2023/02/28 16:37:27;;;;;;;29.90;16.80;;;;;;;1.44;63.58;99980.66;221306;1278;25328;-78
2023/02/28 16:42:31;;;;;;;31.00;18.40;;;;;;;1.31;63.72;99985.49;221457;1278;22997;-79
2023/02/28 16:47:34;;;;;;;38.10;22.50;;;;;;;1.20;63.52;99986.58;221426;1280;22731;-79
2023/02/28 16:52:36;;;;;;;49.00;26.60;;;;;;;1.09;63.81;99991.82;221158;1282;22535;-78
2023/02/28 16:57:40;;;;;;;49.10;26.50;;;;;;;0.99;64.06;99994.19;221191;1283;22601;-78
2023/02/28 17:02:42;;;;;;;37.20;23.40;;;;;;;0.88;63.95;100000.44;221258;1281;23780;-78
2023/02/28 17:07:46;;;;;;;43.60;25.60;;;;;;;0.79;64.32;100003.77;221310;1281;25317;-78
2023/02/28 17:12:49;;;;;;;43.10;23.80;;;;;;;0.72;64.73;100004.90;221375;1276;25319;-77
2023/02/28 17:17:51;;;;;;;81.50;40.50;;;;;;;0.76;64.80;100006.23;221152;1281;22547;-77
2023/02/28 17:22:54;;;;;;;247.80;130.40;;;;;;;0.71;64.58;100012.11;221253;1281;25505;-77
2023/02/28 17:27:57;;;;;;;92.10;44.90;;;;;;;0.61;64.64;100013.38;221658;1275;22606;-78
2023/02/28 17:32:59;;;;;;;78.90;41.60;;;;;;;0.51;64.94;100014.02;221191;1281;24328;-77
2023/02/28 17:38:01;;;;;;;75.40;40.20;;;;;;;0.40;65.41;100012.14;221263;1279;24224;-78
2023/02/28 17:43:03;;;;;;;65.70;35.50;;;;;;;0.30;65.23;100010.63;221275;1281;22543;-78
2023/02/28 17:48:06;;;;;;;58.50;33.90;;;;;;;0.20;65.46;100013.29;221281;1267;24231;-78
2023/02/28 17:53:08;;;;;;;57.20;33.40;;;;;;;0.13;65.50;100014.43;221418;1279;25031;-76
2023/02/28 17:58:12;;;;;;;60.40;33.00;;;;;;;0.05;65.70;100014.38;221140;1281;23097;-78
2023/02/28 18:03:15;;;;;;;60.70;33.30;;;;;;;-0.02;66.22;100014.81;221232;1281;22542;-77
2023/02/28 18:08:17;;;;;;;61.00;34.50;;;;;;;-0.06;66.01;100018.17;221447;1279;23123;-78
2023/02/28 18:13:19;;;;;;;60.50;33.90;;;;;;;-0.11;66.20;100014.61;221430;1279;26606;-77
2023/02/28 18:18:21;;;;;;;63.20;35.50;;;;;;;-0.15;66.54;100012.98;221413;1280;22613;-77
2023/02/28 18:23:24;;;;;;;96.90;51.70;;;;;;;-0.22;66.37;100017.70;221271;1281;25569;-78
2023/02/28 18:28:26;;;;;;;68.50;37.40;;;;;;;-0.29;66.84;100015.72;221330;1281;25509;-79
2023/02/28 18:33:29;;;;;;;63.10;36.80;;;;;;;-0.36;67.38;100019.77;221205;1276;22580;-78
2023/02/28 18:38:33;;;;;;;71.80;39.50;;;;;;;-0.43;67.59;100015.48;221387;1267;23774;-77
2023/02/28 18:43:37;;;;;;;75.10;41.90;;;;;;;-0.50;67.52;100016.76;221223;1281;25384;-78
2023/02/28 18:48:40;;;;;;;73.90;42.00;;;;;;;-0.59;68.49;100022.64;221217;1280;22560;-79
2023/02/28 18:53:43;;;;;;;85.80;45.80;;;;;;;-0.68;68.27;100020.06;221361;1279;24248;-78
2023/02/28 18:58:45;;;;;;;74.90;43.00;;;;;;;-0.77;68.45;100017.95;221397;1278;22544;-77
2023/02/28 19:03:49;;;;;;;81.40;45.60;;;;;;;-0.84;69.01;100019.56;221302;1260;22560;-77
2023/02/28 19:08:58;;;;;;;74.00;41.40;;;;;;;-0.91;69.08;100020.10;221410;1280;23384;-78
2023/02/28 19:14:01;;;;;;;76.70;44.30;;;;;;;-0.97;69.27;100018.19;221353;1281;21899;-77
2023/02/28 19:19:04;;;;;;;87.10;44.90;;;;;;;-1.05;69.38;100017.27;221243;1280;22676;-77
2023/02/28 19:24:06;;;;;;;81.40;46.00;;;;;;;-1.12;69.57;100015.05;221324;1281;22732;-78
2023/02/28 19:29:09;;;;;;;82.40;44.50;;;;;;;-1.18;70.17;100009.52;221328;1281;22603;-77
2023/02/28 19:34:11;;;;;;;77.70;40.60;;;;;;;-1.25;69.74;100015.09;221263;1281;24186;-77
2023/02/28 19:39:13;;;;;;;76.80;42.10;;;;;;;-1.31;70.14;100020.42;221226;1280;25042;-77
2023/02/28 19:44:16;;;;;;;78.70;44.40;;;;;;;-1.36;70.05;100021.21;221325;1279;22652;-77
2023/02/28 19:49:18;;;;;;;79.10;43.40;;;;;;;-1.40;70.38;100021.27;221427;1277;23785;-78
2023/02/28 19:54:21;;;;;;;71.40;41.30;;;;;;;-1.46;70.88;100022.60;221304;1267;22544;-77
2023/02/28 19:59:24;;;;;;;70.80;38.00;;;;;;;-1.52;70.76;100015.81;221289;1281;24947;-77
2023/02/28 20:04:40;;;;;;;70.20;36.70;;;;;;;-1.57;71.09;100014.04;221257;1275;22747;-77
2023/02/28 20:09:43;;;;;;;71.60;38.00;;;;;;;-1.61;71.03;100011.52;221303;1281;24623;-78
2023/02/28 20:14:47;;;;;;;74.60;39.60;;;;;;;-1.65;71.28;100014.45;221361;1279;23027;-77
2023/02/28 20:19:50;;;;;;;76.10;39.50;;;;;;;-1.68;71.40;100019.66;221470;1281;23436;-78
2023/02/28 20:24:53;;;;;;;67.90;38.80;;;;;;;-1.71;71.41;100020.64;221068;1281;26741;-78
2023/02/28 20:30:08;;;;;;;68.90;38.40;;;;;;;-1.74;71.16;100023.23;221289;1259;22788;-78
2023/02/28 20:35:10;;;;;;;63.50;36.00;;;;;;;-1.77;71.35;100022.65;221300;1281;22765;-77
2023/02/28 20:40:13;;;;;;;65.00;35.60;;;;;;;-1.79;71.42;100021.89;221393;1277;22595;-76
2023/02/28 20:45:16;;;;;;;64.40;36.30;;;;;;;-1.80;71.71;100019.04;221176;1280;24202;-76
2023/02/28 20:50:19;;;;;;;71.10;39.60;;;;;;;-1.83;71.68;100012.80;221620;1281;24328;-77
2023/02/28 20:55:21;;;;;;;108.20;56.70;;;;;;;-1.85;72.03;100009.63;221320;1279;25623;-77
2023/02/28 21:00:25;;;;;;;117.60;60.50;;;;;;;-1.87;71.99;100011.47;221176;1280;22556;-77
2023/02/28 21:05:27;;;;;;;130.00;64.30;;;;;;;-1.89;72.14;100010.70;221469;1279;22572;-76
2023/02/28 21:10:31;;;;;;;125.70;60.00;;;;;;;-1.91;71.93;100009.42;221417;1278;25615;-78
2023/02/28 21:15:37;;;;;;;123.20;63.20;;;;;;;-1.94;72.04;100006.98;221273;1272;25582;-77
2023/02/28 21:20:39;;;;;;;125.70;64.20;;;;;;;-1.98;72.01;100007.23;221352;1281;22645;-77
2023/02/28 21:25:42;;;;;;;154.10;75.50;;;;;;;-2.02;72.42;100008.79;221505;1279;22658;-77
2023/02/28 21:30:44;;;;;;;166.30;74.20;;;;;;;-2.05;72.86;100006.36;221176;1281;22848;-78
2023/02/28 21:35:47;;;;;;;163.40;80.00;;;;;;;-2.08;72.74;100008.27;221147;1281;22780;-81
2023/02/28 21:40:50;;;;;;;188.00;82.00;;;;;;;-2.13;72.87;100014.58;221328;1280;25590;-78
2023/02/28 21:45:52;;;;;;;188.00;83.60;;;;;;;-2.19;73.12;100016.03;221395;1281;22737;-77
2023/02/28 21:51:02;;;;;;;172.00;84.20;;;;;;;-2.24;73.17;100017.20;221296;1281;22811;-76
2023/02/28 21:56:10;;;;;;;183.20;84.00;;;;;;;-2.29;73.42;100012.42;221576;1278;27565;-76
2023/02/28 22:01:14;;;;;;;193.70;88.00;;;;;;;-2.34;73.55;100011.95;221200;1270;24318;-77
2023/02/28 22:06:23;;;;;;;203.70;93.80;;;;;;;-2.38;73.80;100012.35;221524;1270;23448;-78
2023/02/28 22:11:26;;;;;;;158.70;75.40;;;;;;;-2.42;74.01;100011.34;221255;1278;25441;-77
2023/02/28 22:16:30;;;;;;;159.20;74.70;;;;;;;-2.45;74.06;100014.80;221244;1281;22803;-77
2023/02/28 22:21:52;;;;;;;171.00;77.30;;;;;;;-2.51;74.22;100018.67;221423;1279;22595;-77
2023/02/28 22:26:55;;;;;;;167.80;77.90;;;;;;;-2.56;74.68;100021.68;221411;1281;23912;-76
2023/02/28 22:31:57;;;;;;;177.80;81.40;;;;;;;-2.60;74.88;100017.06;221538;1265;22538;-76
2023/02/28 22:36:59;;;;;;;194.20;89.60;;;;;;;-2.65;75.25;100016.45;221468;1281;22546;-77
2023/02/28 22:42:02;;;;;;;231.40;104.00;;;;;;;-2.69;75.69;100033.37;221224;1270;22733;-77
2023/02/28 22:47:06;;;;;;;240.00;109.60;;;;;;;-2.68;75.87;100041.08;221456;1274;25539;-77
2023/02/28 22:52:10;;;;;;;209.10;100.70;;;;;;;-2.64;75.48;100037.45;221590;1278;22807;-79
2023/02/28 22:57:13;;;;;;;204.30;100.10;;;;;;;-2.60;75.70;100036.05;221338;1278;22679;-78
2023/02/28 23:02:15;;;;;;;195.90;93.60;;;;;;;-2.57;75.69;100031.75;221586;1275;25487;-77
2023/02/28 23:07:17;;;;;;;204.30;101.70;;;;;;;-2.56;75.74;100032.91;221295;1281;22613;-77
2023/02/28 23:12:20;;;;;;;204.40;99.70;;;;;;;-2.57;75.76;100034.48;221241;1270;275605;-77